createdAt,value
2018-07-21T00:01:29.532Z,6.60
2018-07-21T00:03:57.081Z,6.50
2018-07-21T00:06:24.710Z,6.27
2018-07-21T00:08:52.288Z,7.13
2018-07-21T00:11:19.941Z,6.80
2018-07-21T00:13:51.300Z,6.60
2018-07-21T00:16:18.900Z,6.17
2018-07-21T00:18:46.532Z,6.07
2018-07-21T00:21:14.166Z,7.20
2018-07-21T00:23:42.056Z,6.80
2018-07-21T00:26:09.601Z,6.03
2018-07-21T00:28:37.183Z,7.00
2018-07-21T00:31:04.802Z,6.90
2018-07-21T00:33:32.510Z,7.10
2018-07-21T00:36:00.072Z,6.43
2018-07-21T00:38:27.648Z,6.30
2018-07-21T00:40:55.163Z,6.13
2018-07-21T00:43:22.760Z,6.70
2018-07-21T00:45:50.311Z,7.43
2018-07-21T00:48:18.024Z,6.37
2018-07-21T00:50:46.017Z,6.80
2018-07-21T00:53:15.680Z,6.90
2018-07-21T00:55:43.246Z,7.63
2018-07-21T00:58:10.869Z,7.13
2018-07-21T01:00:38.432Z,6.27
2018-07-21T01:03:06.148Z,7.83
2018-07-21T01:05:33.641Z,9.60
2018-07-21T01:08:01.310Z,6.27
2018-07-21T01:10:28.889Z,6.80
2018-07-21T01:12:56.461Z,7.53
2018-07-21T01:15:24.054Z,5.73
2018-07-21T01:17:51.626Z,6.93
2018-07-21T01:20:19.251Z,7.37
2018-07-21T01:22:47.089Z,6.90
2018-07-21T01:25:14.610Z,5.70
2018-07-21T01:27:42.222Z,5.77
2018-07-21T01:30:09.804Z,8.83
2018-07-21T01:32:37.509Z,6.27
2018-07-21T01:35:04.957Z,8.47
2018-07-21T01:37:32.601Z,5.87
2018-07-21T01:40:00.243Z,6.73
2018-07-21T01:42:27.848Z,7.37
2018-07-21T01:44:55.380Z,6.63
2018-07-21T01:47:22.973Z,7.23
2018-07-21T01:49:50.992Z,6.97
2018-07-21T01:52:18.568Z,7.80
2018-07-21T01:54:46.161Z,7.40
2018-07-21T01:57:13.828Z,7.40
2018-07-21T01:59:41.431Z,6.60
2018-07-21T02:02:09.220Z,6.73
2018-07-21T02:04:36.852Z,6.57
2018-07-21T02:07:04.616Z,8.07
2018-07-21T02:09:32.209Z,6.97
2018-07-21T02:11:59.832Z,7.40
2018-07-21T02:14:27.439Z,8.60
2018-07-21T02:16:55.059Z,6.67
2018-07-21T02:19:23.171Z,7.00
2018-07-21T02:21:50.718Z,7.20
2018-07-21T02:24:18.268Z,8.50
2018-07-21T02:26:45.743Z,7.67
2018-07-21T02:29:13.288Z,7.60
2018-07-21T02:31:40.804Z,7.53
2018-07-21T02:34:08.389Z,6.70
2018-07-21T02:36:35.936Z,7.53
2018-07-21T02:39:06.721Z,7.77
2018-07-21T02:41:34.329Z,7.30
2018-07-21T02:44:02.544Z,7.90
2018-07-21T02:46:30.201Z,7.03
2018-07-21T02:48:57.805Z,7.83
2018-07-21T02:51:25.416Z,8.00
2018-07-21T02:53:54.405Z,8.43
2018-07-21T02:56:22.070Z,7.57
2018-07-21T02:58:49.631Z,8.30
2018-07-21T03:01:17.273Z,8.03
2018-07-21T03:03:44.960Z,7.30
2018-07-21T03:06:12.607Z,8.60
2018-07-21T03:08:40.376Z,7.70
2018-07-21T03:11:08.049Z,8.83
2018-07-21T03:13:35.753Z,9.57
2018-07-21T03:16:03.316Z,7.77
2018-07-21T03:18:30.892Z,9.67
2018-07-21T03:20:58.798Z,8.03
2018-07-21T03:23:26.331Z,7.70
2018-07-21T03:25:53.985Z,8.63
2018-07-21T03:28:21.609Z,7.90
2018-07-21T03:30:49.273Z,8.07
2018-07-21T03:33:16.815Z,8.20
2018-07-21T03:35:44.437Z,8.10
2018-07-21T03:38:12.042Z,9.57
2018-07-21T03:40:39.662Z,9.03
2018-07-21T03:43:07.119Z,9.50
2018-07-21T03:45:34.774Z,7.40
2018-07-21T03:48:02.269Z,8.00
2018-07-21T03:50:29.808Z,8.43
2018-07-21T03:52:57.408Z,7.30
2018-07-21T03:55:24.955Z,8.50
2018-07-21T03:57:53.177Z,8.00
2018-07-21T04:00:21.162Z,7.80
2018-07-21T04:02:50.332Z,8.10
2018-07-21T04:05:18.012Z,8.33
2018-07-21T04:07:45.592Z,8.17
2018-07-21T04:10:13.162Z,8.67
2018-07-21T04:12:40.722Z,8.80
2018-07-21T04:15:08.412Z,8.10
2018-07-21T04:17:35.952Z,8.83
2018-07-21T04:20:03.982Z,9.10
2018-07-21T04:22:31.626Z,8.67
2018-07-21T04:24:59.252Z,8.20
2018-07-21T04:27:26.909Z,9.83
2018-07-21T04:29:54.512Z,8.63
2018-07-21T04:32:22.165Z,8.43
2018-07-21T04:34:49.820Z,8.00
2018-07-21T04:37:17.359Z,8.30
2018-07-21T04:39:45.056Z,8.77
2018-07-21T04:42:12.560Z,10.20
2018-07-21T04:44:40.168Z,8.70
2018-07-21T04:47:07.836Z,8.90
2018-07-21T04:49:35.427Z,8.37
2018-07-21T04:52:03.009Z,7.90
2018-07-21T04:54:30.751Z,8.60
2018-07-21T04:56:58.313Z,7.63
2018-07-21T04:59:25.960Z,8.40
2018-07-21T05:01:53.533Z,8.47
2018-07-21T05:04:21.286Z,9.90
2018-07-21T05:06:48.933Z,8.10
2018-07-21T05:09:16.615Z,10.37
2018-07-21T05:11:44.363Z,8.23
2018-07-21T05:14:11.937Z,8.53
2018-07-21T05:16:39.507Z,9.87
2018-07-21T05:19:07.473Z,8.57
2018-07-21T05:21:35.644Z,8.00
2018-07-21T05:24:03.628Z,8.10
2018-07-21T05:26:31.278Z,8.93
2018-07-21T05:28:58.830Z,8.27
2018-07-21T05:31:26.503Z,8.40
2018-07-21T05:33:54.091Z,7.77
2018-07-21T05:36:21.803Z,8.17
2018-07-21T05:38:49.636Z,9.00
2018-07-21T05:41:17.333Z,8.90
2018-07-21T05:43:44.923Z,7.73
2018-07-21T05:46:12.647Z,7.87
2018-07-21T05:48:40.301Z,8.80
2018-07-21T05:51:07.980Z,8.77
2018-07-21T05:53:35.592Z,8.10
2018-07-21T05:56:03.056Z,7.87
2018-07-21T05:58:30.767Z,8.53
2018-07-21T06:00:58.324Z,8.97
2018-07-21T06:03:25.984Z,8.37
2018-07-21T06:05:53.620Z,7.50
2018-07-21T06:08:21.191Z,8.10
2018-07-21T06:10:48.792Z,7.27
2018-07-21T06:13:16.464Z,7.87
2018-07-21T06:15:44.238Z,7.13
2018-07-21T06:18:12.339Z,6.70
2018-07-21T06:20:40.188Z,10.63
2018-07-21T06:23:07.841Z,7.90
2018-07-21T06:25:35.454Z,7.40
2018-07-21T06:28:03.063Z,8.03
2018-07-21T06:30:30.711Z,7.57
2018-07-21T06:32:58.529Z,8.03
2018-07-21T06:35:28.291Z,6.23
2018-07-21T06:37:55.981Z,7.10
2018-07-21T06:40:24.566Z,7.00
2018-07-21T06:42:52.360Z,6.37
2018-07-21T06:45:20.163Z,8.83
2018-07-21T06:47:48.794Z,6.63
2018-07-21T06:50:17.997Z,6.40
2018-07-21T06:52:45.738Z,6.47
2018-07-21T06:55:13.576Z,7.23
2018-07-21T06:57:43.155Z,7.70
2018-07-21T07:00:10.846Z,7.40
2018-07-21T07:02:39.293Z,6.90
2018-07-21T07:05:07.689Z,7.23
2018-07-21T07:07:35.171Z,6.90
2018-07-21T07:10:02.878Z,8.60
2018-07-21T07:12:30.645Z,8.80
2018-07-21T07:14:58.266Z,6.67
2018-07-21T07:17:25.873Z,6.93
2018-07-21T07:19:53.856Z,7.17
2018-07-21T07:22:21.669Z,7.60
2018-07-21T07:24:50.241Z,7.77
2018-07-21T07:27:18.223Z,7.50
2018-07-21T07:29:45.765Z,7.17
2018-07-21T07:32:13.416Z,6.63
2018-07-21T07:34:41.152Z,6.83
2018-07-21T07:37:08.846Z,6.40
2018-07-21T07:39:36.431Z,6.67
2018-07-21T07:42:04.099Z,6.60
2018-07-21T07:44:31.740Z,6.30
2018-07-21T07:46:59.482Z,6.73
2018-07-21T07:49:27.140Z,5.10
2018-07-21T07:51:54.732Z,5.30
2018-07-21T07:54:22.448Z,7.67
2018-07-21T07:56:50.287Z,6.57
2018-07-21T07:59:17.934Z,6.13
2018-07-21T08:01:45.659Z,7.10
2018-07-21T08:04:13.398Z,7.13
2018-07-21T08:06:41.050Z,7.80
2018-07-21T08:09:12.100Z,7.77
2018-07-21T08:11:40.581Z,7.67
2018-07-21T08:14:08.262Z,7.47
2018-07-21T08:16:35.980Z,7.73
2018-07-21T08:19:03.714Z,7.53
2018-07-21T08:21:31.439Z,7.90
2018-07-21T08:23:59.530Z,7.03
2018-07-21T08:26:27.258Z,7.00
2018-07-21T08:28:58.318Z,8.20
2018-07-21T08:31:26.148Z,8.47
2018-07-21T08:33:54.609Z,7.17
2018-07-21T08:36:22.461Z,7.10
2018-07-21T08:38:50.308Z,8.37
2018-07-21T08:41:18.044Z,8.17
2018-07-21T08:43:46.507Z,7.00
2018-07-21T08:46:14.319Z,8.00
2018-07-21T08:48:42.007Z,9.23
2018-07-21T08:51:09.820Z,8.10
2018-07-21T08:53:37.772Z,7.77
2018-07-21T08:56:05.571Z,7.47
2018-07-21T08:58:33.429Z,7.13
2018-07-21T09:01:01.189Z,8.70
2018-07-21T09:03:29.172Z,6.80
2018-07-21T09:05:56.901Z,7.83
2018-07-21T09:08:24.618Z,7.77
2018-07-21T09:10:52.523Z,8.33
2018-07-21T09:13:20.753Z,8.20
2018-07-21T09:15:48.451Z,7.80
2018-07-21T09:18:16.151Z,8.50
2018-07-21T09:20:43.831Z,10.13
2018-07-21T09:23:11.611Z,8.93
2018-07-21T09:25:39.574Z,9.90
2018-07-21T09:28:07.129Z,10.10
2018-07-21T09:30:34.911Z,8.43
2018-07-21T09:33:02.583Z,10.17
2018-07-21T09:35:30.800Z,8.50
2018-07-21T09:37:58.440Z,10.43
2018-07-21T09:40:26.250Z,8.73
2018-07-21T09:42:53.848Z,9.57
2018-07-21T09:45:21.428Z,8.40
2018-07-21T09:47:49.128Z,8.70
2018-07-21T09:50:16.968Z,8.40
2018-07-21T09:52:44.807Z,10.30
2018-07-21T09:55:12.517Z,8.80
2018-07-21T09:57:40.396Z,8.83
2018-07-21T10:00:09.828Z,8.67
2018-07-21T10:02:37.596Z,9.50
2018-07-21T10:05:05.363Z,9.43
2018-07-21T10:07:33.082Z,9.30
2018-07-21T10:10:00.868Z,8.50
2018-07-21T10:12:28.682Z,8.17
2018-07-21T10:14:56.582Z,9.63
2018-07-21T10:17:24.204Z,8.90
2018-07-21T10:19:52.079Z,9.37
2018-07-21T10:22:19.766Z,9.37
2018-07-21T10:24:52.923Z,8.30
2018-07-21T10:27:20.895Z,9.67
2018-07-21T10:29:48.630Z,11.07
2018-07-21T10:32:16.424Z,9.10
2018-07-21T10:34:44.281Z,10.77
2018-07-21T10:37:11.951Z,8.90
2018-07-21T10:39:39.707Z,9.20
2018-07-21T10:42:08.561Z,8.87
2018-07-21T10:44:36.725Z,8.37
2018-07-21T10:47:04.452Z,9.57
2018-07-21T10:49:32.096Z,10.10
2018-07-21T10:51:59.826Z,10.50
2018-07-21T10:54:27.596Z,11.23
2018-07-21T10:56:55.291Z,11.83
2018-07-21T10:59:23.338Z,10.73
2018-07-21T11:01:51.156Z,12.23
2018-07-21T11:04:18.918Z,11.73
2018-07-21T11:06:46.709Z,12.17
2018-07-21T11:09:14.359Z,12.57
2018-07-21T11:11:42.117Z,11.70
2018-07-21T11:14:09.765Z,12.00
2018-07-21T11:16:37.474Z,12.10
2018-07-21T11:19:05.255Z,12.40
2018-07-21T11:21:32.935Z,11.47
2018-07-21T11:24:00.613Z,12.67
2018-07-21T11:26:28.353Z,11.40
2018-07-21T11:28:56.030Z,11.67
2018-07-21T11:31:23.806Z,12.77
2018-07-21T11:33:52.224Z,13.67
2018-07-21T11:36:20.039Z,11.93
2018-07-21T11:38:47.791Z,12.90
2018-07-21T11:41:15.501Z,12.03
2018-07-21T11:43:43.380Z,14.37
2018-07-21T11:46:11.171Z,14.03
2018-07-21T11:48:39.032Z,13.53
2018-07-21T11:51:06.765Z,15.73
2018-07-21T11:53:34.715Z,17.20
2018-07-21T11:56:02.497Z,16.93
2018-07-21T11:58:30.117Z,17.03
2018-07-21T12:01:01.732Z,17.33
2018-07-21T12:03:29.557Z,17.13
2018-07-21T12:05:57.244Z,18.60
2018-07-21T12:08:24.916Z,18.57
2018-07-21T12:10:52.779Z,18.40
2018-07-21T12:13:20.613Z,17.97
2018-07-21T12:15:48.389Z,18.47
2018-07-21T12:18:16.076Z,16.87
2018-07-21T12:20:44.153Z,18.33
2018-07-21T12:23:11.904Z,16.57
2018-07-21T12:25:39.662Z,16.53
2018-07-21T12:28:07.288Z,14.90
2018-07-21T12:30:35.094Z,15.27
2018-07-21T12:33:02.866Z,14.30
2018-07-21T12:35:30.653Z,15.10
2018-07-21T12:37:58.314Z,15.10
2018-07-21T12:40:26.014Z,16.10
2018-07-21T12:42:53.727Z,15.87
2018-07-21T12:45:21.448Z,15.60
2018-07-21T12:47:49.211Z,17.93
2018-07-21T12:50:16.893Z,13.60
2018-07-21T12:52:44.535Z,14.90
2018-07-21T12:55:12.278Z,13.03
2018-07-21T12:57:39.872Z,12.17
2018-07-21T13:00:07.476Z,11.17
2018-07-21T13:02:35.313Z,12.13
2018-07-21T13:05:08.079Z,9.97
2018-07-21T13:07:35.688Z,12.43
2018-07-21T13:10:03.471Z,11.13
2018-07-21T13:12:31.082Z,11.70
2018-07-21T13:14:58.792Z,10.80
2018-07-21T13:17:26.604Z,11.30
2018-07-21T13:19:54.424Z,11.50
2018-07-21T13:22:22.057Z,10.53
2018-07-21T13:24:49.783Z,11.43
2018-07-21T13:27:17.413Z,13.47
2018-07-21T13:29:45.020Z,10.57
2018-07-21T13:32:12.637Z,11.30
2018-07-21T13:34:40.311Z,10.87
2018-07-21T13:37:07.937Z,9.90
2018-07-21T13:39:35.565Z,10.87
2018-07-21T13:42:03.296Z,11.17
2018-07-21T13:44:30.959Z,10.03
2018-07-21T13:46:58.620Z,10.90
2018-07-21T13:49:26.960Z,9.40
2018-07-21T13:51:54.733Z,9.60
2018-07-21T13:54:22.317Z,9.40
2018-07-21T13:56:50.036Z,9.30
2018-07-21T13:59:17.776Z,9.97
2018-07-21T14:01:45.433Z,9.10
2018-07-21T14:04:13.107Z,9.97
2018-07-21T14:06:40.704Z,9.57
2018-07-21T14:09:09.990Z,9.97
2018-07-21T14:11:38.165Z,8.97
2018-07-21T14:14:06.485Z,8.00
2018-07-21T14:16:34.479Z,8.47
2018-07-21T14:19:02.326Z,9.43
2018-07-21T14:21:30.134Z,10.03
2018-07-21T14:23:58.859Z,8.57
2018-07-21T14:26:26.891Z,9.13
2018-07-21T14:28:54.920Z,8.17
2018-07-21T14:31:23.341Z,8.00
2018-07-21T14:33:51.321Z,8.63
2018-07-21T14:36:19.321Z,7.90
2018-07-21T14:38:51.376Z,7.37
2018-07-21T14:41:19.161Z,7.87
2018-07-21T14:43:47.021Z,9.07
2018-07-21T14:46:14.956Z,9.27
2018-07-21T14:48:42.863Z,9.10
2018-07-21T14:51:10.560Z,7.40
2018-07-21T14:53:38.122Z,8.13
2018-07-21T14:56:06.006Z,10.20
2018-07-21T14:58:33.808Z,10.60
2018-07-21T15:01:01.785Z,11.73
2018-07-21T15:03:29.704Z,8.87
2018-07-21T15:05:58.008Z,8.40
2018-07-21T15:08:25.766Z,8.97
2018-07-21T15:10:55.295Z,7.50
2018-07-21T15:13:23.105Z,8.90
2018-07-21T15:15:50.936Z,8.10
2018-07-21T15:18:18.915Z,7.23
2018-07-21T15:20:47.005Z,8.07
2018-07-21T15:23:15.083Z,8.83
2018-07-21T15:25:43.097Z,7.90
2018-07-21T15:28:11.169Z,7.20
2018-07-21T15:30:39.119Z,7.50
2018-07-21T15:33:07.201Z,6.90
2018-07-21T15:35:34.907Z,7.93
2018-07-21T15:38:03.049Z,7.93
2018-07-21T15:40:30.971Z,8.67
2018-07-21T15:42:58.726Z,10.17
2018-07-21T15:45:27.259Z,9.20
2018-07-21T15:47:55.556Z,9.50
2018-07-21T15:50:23.211Z,8.90
2018-07-21T15:52:50.821Z,8.90
2018-07-21T15:55:19.127Z,10.23
2018-07-21T15:57:46.773Z,7.67
2018-07-21T16:00:14.396Z,7.67
2018-07-21T16:02:42.125Z,6.87
2018-07-21T16:05:09.992Z,7.47
2018-07-21T16:07:37.834Z,5.73
2018-07-21T16:10:05.891Z,6.13
2018-07-21T16:12:33.533Z,5.47
2018-07-21T16:15:03.873Z,4.47
2018-07-21T16:17:28.946Z,5.40
2018-07-21T16:19:57.149Z,6.03
2018-07-21T16:22:25.134Z,5.67
2018-07-21T16:24:58.932Z,6.10
2018-07-21T16:27:27.716Z,5.67
2018-07-21T16:29:56.555Z,5.67
2018-07-21T16:32:24.296Z,5.33
2018-07-21T16:34:52.098Z,6.50
2018-07-21T16:37:19.925Z,6.33
2018-07-21T16:39:47.765Z,5.27
2018-07-21T16:42:15.732Z,5.87
2018-07-21T16:44:43.693Z,6.80
2018-07-21T16:47:11.504Z,6.60
2018-07-21T16:49:39.373Z,5.87
2018-07-21T16:52:07.314Z,5.97
2018-07-21T16:54:35.538Z,7.30
2018-07-21T16:57:03.702Z,5.50
2018-07-21T16:59:45.114Z,6.50
2018-07-21T17:02:13.429Z,6.83
2018-07-21T17:04:41.868Z,6.60
2018-07-21T17:07:09.752Z,6.20
2018-07-21T17:09:37.799Z,8.43
2018-07-21T17:12:05.611Z,7.40
2018-07-21T17:14:33.429Z,6.93
2018-07-21T17:17:01.183Z,8.23
2018-07-21T17:19:29.639Z,5.87
2018-07-21T17:21:57.546Z,6.03
2018-07-21T17:24:25.227Z,6.60
2018-07-21T17:26:53.612Z,7.00
2018-07-21T17:29:21.423Z,7.60
2018-07-21T17:31:49.217Z,6.50
2018-07-21T17:34:17.422Z,6.23
2018-07-21T17:36:50.200Z,6.93
2018-07-21T17:39:18.316Z,7.07
2018-07-21T17:41:46.347Z,6.83
2018-07-21T17:44:15.289Z,7.20
2018-07-21T17:46:43.227Z,8.37
2018-07-21T17:49:11.179Z,7.77
2018-07-21T17:51:39.000Z,7.73
2018-07-21T17:54:11.684Z,9.43
2018-07-21T17:56:40.116Z,7.77
2018-07-21T17:59:08.664Z,7.37
2018-07-21T18:01:36.744Z,8.40
2018-07-21T18:04:05.276Z,9.93
2018-07-21T18:06:33.808Z,8.23
2018-07-21T18:09:01.893Z,8.60
2018-07-21T18:11:29.716Z,7.93
2018-07-21T18:13:57.393Z,7.83
2018-07-21T18:16:26.038Z,8.33
2018-07-21T18:18:58.880Z,7.77
2018-07-21T18:21:26.514Z,7.87
2018-07-21T18:23:54.213Z,7.37
2018-07-21T18:26:21.695Z,8.60
2018-07-21T18:28:49.421Z,7.63
2018-07-21T18:31:17.632Z,7.73
2018-07-21T18:33:45.265Z,8.70
2018-07-21T18:36:12.937Z,8.77
2018-07-21T18:38:40.532Z,8.37
2018-07-21T18:41:09.391Z,8.63
2018-07-21T18:43:37.684Z,7.67
2018-07-21T18:46:05.847Z,8.00
2018-07-21T18:48:33.712Z,8.90
2018-07-21T18:51:01.500Z,8.97
2018-07-21T18:53:29.286Z,9.43
2018-07-21T18:55:57.024Z,9.40
2018-07-21T18:58:24.766Z,8.40
2018-07-21T19:00:52.491Z,10.10
2018-07-21T19:03:20.943Z,9.77
2018-07-21T19:05:49.618Z,9.70
2018-07-21T19:08:24.355Z,9.63
2018-07-21T19:10:53.750Z,9.07
2018-07-21T19:13:23.509Z,9.30
2018-07-21T19:15:57.288Z,8.53
2018-07-21T19:18:25.100Z,8.80
2018-07-21T19:20:58.601Z,9.77
2018-07-21T19:23:26.475Z,9.43
2018-07-21T19:25:59.957Z,8.87
2018-07-21T19:28:32.580Z,8.53
2018-07-21T19:31:01.945Z,8.60
2018-07-21T19:33:29.966Z,9.40
2018-07-21T19:35:58.187Z,10.50
2018-07-21T19:38:26.468Z,9.37
2018-07-21T19:40:54.221Z,9.77
2018-07-21T19:43:22.579Z,10.57
2018-07-21T19:45:51.694Z,9.70
2018-07-21T19:48:19.476Z,9.77
2018-07-21T19:50:47.195Z,9.70
2018-07-21T19:53:14.948Z,10.10
2018-07-21T19:55:42.835Z,8.93
2018-07-21T19:58:10.720Z,8.80
2018-07-21T20:00:38.719Z,9.73
2018-07-21T20:03:06.630Z,8.80
2018-07-21T20:05:34.444Z,10.10
2018-07-21T20:08:02.620Z,8.67
2018-07-21T20:10:30.580Z,8.70
2018-07-21T20:12:59.865Z,8.87
2018-07-21T20:15:28.058Z,8.30
2018-07-21T20:17:56.815Z,9.20
2018-07-21T20:20:25.124Z,8.33
2018-07-21T20:22:53.080Z,7.70
2018-07-21T20:25:21.430Z,8.23
2018-07-21T20:27:49.310Z,8.33
2018-07-21T20:30:17.466Z,7.83
2018-07-21T20:32:47.112Z,7.57
2018-07-21T20:35:16.379Z,7.93
2018-07-21T20:37:45.373Z,8.23
2018-07-21T20:40:13.947Z,7.57
2018-07-21T20:42:41.833Z,7.80
2018-07-21T20:45:09.713Z,8.07
2018-07-21T20:47:38.038Z,7.80
2018-07-21T20:50:08.100Z,6.83
2018-07-21T20:52:36.264Z,7.90
2018-07-21T20:55:04.248Z,8.10
2018-07-21T20:57:32.303Z,8.30
2018-07-21T21:00:00.295Z,9.63
2018-07-21T21:02:28.137Z,9.50
2018-07-21T21:04:55.982Z,10.10
2018-07-21T21:07:24.023Z,8.63
2018-07-21T21:09:52.134Z,8.97
2018-07-21T21:12:21.276Z,8.80
2018-07-21T21:14:49.665Z,9.50
2018-07-21T21:17:23.522Z,9.63
2018-07-21T21:19:51.689Z,9.50
2018-07-21T21:22:20.203Z,10.40
2018-07-21T21:24:48.367Z,11.33
2018-07-21T21:27:16.383Z,11.80
2018-07-21T21:29:44.474Z,11.67
2018-07-21T21:32:12.787Z,16.03
2018-07-21T21:34:40.700Z,12.47
2018-07-21T21:37:08.484Z,13.27
2018-07-21T21:42:16.664Z,13.20
2018-07-21T21:44:44.816Z,11.90
2018-07-21T21:47:14.469Z,12.60
2018-07-21T21:49:42.541Z,12.40
2018-07-21T21:52:10.704Z,10.57
2018-07-21T21:54:38.914Z,10.57
2018-07-21T21:57:06.999Z,11.00
2018-07-21T21:59:34.747Z,10.93
2018-07-21T22:02:02.560Z,11.83
2018-07-21T22:04:30.431Z,10.73
2018-07-21T22:06:58.940Z,10.97
2018-07-21T22:09:26.927Z,9.97
2018-07-21T22:11:54.897Z,11.87
2018-07-21T22:14:22.759Z,11.57
2018-07-21T22:16:50.565Z,10.97
2018-07-21T22:19:18.338Z,11.57
2018-07-21T22:21:46.025Z,13.40
2018-07-21T22:24:13.709Z,12.90
2018-07-21T22:26:41.495Z,12.67
2018-07-21T22:29:09.560Z,14.47
2018-07-21T22:31:37.293Z,13.87
2018-07-21T22:34:05.225Z,13.40
2018-07-21T22:36:34.628Z,15.13
2018-07-21T22:39:02.532Z,13.60
2018-07-21T22:41:30.286Z,14.10
2018-07-21T22:43:57.899Z,13.33
2018-07-21T22:46:25.615Z,13.87
2018-07-21T22:48:53.291Z,14.50
2018-07-21T22:51:20.934Z,16.03
2018-07-21T22:53:48.579Z,16.17
2018-07-21T22:56:16.170Z,18.00
2018-07-21T22:58:44.006Z,17.40
2018-07-21T23:01:11.635Z,18.47
2018-07-21T23:03:39.162Z,17.80
2018-07-21T23:06:07.027Z,17.80
2018-07-21T23:08:34.873Z,18.63
2018-07-21T23:11:02.456Z,17.30
2018-07-21T23:13:30.080Z,18.80
2018-07-21T23:15:57.665Z,18.30
2018-07-21T23:18:25.193Z,20.07
2018-07-21T23:20:52.917Z,18.00
2018-07-21T23:23:20.425Z,19.40
2018-07-21T23:25:49.497Z,20.37
2018-07-21T23:28:17.032Z,19.90
2018-07-21T23:30:44.569Z,21.53
2018-07-21T23:33:12.111Z,20.03
2018-07-21T23:35:39.745Z,20.10
2018-07-21T23:38:07.322Z,19.80
2018-07-21T23:40:34.927Z,22.27
2018-07-21T23:43:02.468Z,22.30
2018-07-21T23:45:29.963Z,18.40
2018-07-21T23:47:57.475Z,18.37
2018-07-21T23:50:25.048Z,19.67
2018-07-21T23:52:52.628Z,18.10
2018-07-21T23:55:20.174Z,18.67
2018-07-21T23:57:48.409Z,19.77
